Time;durP1;ratioP1;P1;durP2;ratioP2;P2;SDS_P1;SDS_P2;PMS_P1;PMS_P2;Temp;Humidity;BMP_temperature;BMP_pressure;BME280_temperature;BME280_humidity;BME280_pressure;Samples;Min_cycle;Max_cycle;Signal;HPM_P1;HPM_P2
2021/11/09 00:00:14;;;;;;;45.20;32.40;;;;;;;6.58;98.23;99703.47;102290;1311;74520;-75
2021/11/09 00:03:06;;;;;;;48.80;35.40;;;;;;;6.59;98.39;99705.02;102363;1310;61846;-74
2021/11/09 00:05:32;;;;;;;48.30;35.40;;;;;;;6.59;98.41;99708.92;102253;1316;62362;-75
2021/11/09 00:08:07;;;;;;;47.20;34.80;;;;;;;6.58;98.52;99713.88;102423;1310;75779;-75
2021/11/09 00:10:34;;;;;;;44.30;31.70;;;;;;;6.59;98.59;99717.39;102329;1310;69597;-75
2021/11/09 00:13:03;;;;;;;42.80;31.10;;;;;;;6.58;98.62;99711.40;102336;1311;74230;-74
2021/11/09 00:15:32;;;;;;;39.60;29.10;;;;;;;6.58;98.84;99715.29;102483;1310;60516;-75
2021/11/09 00:18:01;;;;;;;44.10;32.20;;;;;;;6.58;98.79;99717.41;102315;1310;61324;-75
2021/11/09 00:20:29;;;;;;;38.20;29.00;;;;;;;6.58;98.85;99719.86;102414;1311;74188;-75
2021/11/09 00:22:57;;;;;;;40.80;29.80;;;;;;;6.58;98.93;99718.46;102389;1314;70031;-74
2021/11/09 00:25:25;;;;;;;36.90;28.20;;;;;;;6.57;99.04;99720.97;102271;1314;73554;-75
2021/11/09 00:27:52;;;;;;;42.30;30.60;;;;;;;6.56;99.06;99720.84;102233;1310;60551;-75
2021/11/09 00:30:21;;;;;;;37.80;29.90;;;;;;;6.56;99.16;99720.13;101897;1316;61368;-75
2021/11/09 00:32:48;;;;;;;41.20;30.80;;;;;;;6.56;99.16;99726.48;102298;1310;75501;-76
2021/11/09 00:35:19;;;;;;;46.60;31.30;;;;;;;6.57;99.18;99722.93;103017;1316;70387;-75
2021/11/09 00:37:46;;;;;;;44.30;31.50;;;;;;;6.57;99.23;99724.70;102319;1310;73185;-76
2021/11/09 00:40:15;;;;;;;42.10;30.70;;;;;;;6.58;99.27;99723.23;102283;1311;60612;-75
2021/11/09 00:42:42;;;;;;;45.00;30.90;;;;;;;6.58;99.32;99728.01;102513;1310;60721;-75
2021/11/09 00:45:12;;;;;;;40.80;29.40;;;;;;;6.58;99.39;99724.66;102358;1310;73711;-76
2021/11/09 00:47:39;;;;;;;41.60;29.60;;;;;;;6.59;99.42;99729.05;102496;1310;70931;-75
2021/11/09 00:50:08;;;;;;;44.40;31.30;;;;;;;6.58;99.45;99728.54;102370;1311;72954;-77
2021/11/09 00:52:35;;;;;;;42.70;30.90;;;;;;;6.58;99.49;99732.95;101991;1317;60610;-74
2021/11/09 00:55:03;;;;;;;40.40;29.80;;;;;;;6.58;99.54;99731.54;102327;1317;61108;-77
2021/11/09 00:57:30;;;;;;;42.30;29.90;;;;;;;6.59;99.66;99726.92;102306;1310;74488;-75
2021/11/09 00:59:56;;;;;;;45.80;31.10;;;;;;;6.58;99.69;99728.02;102352;1311;70492;-75
2021/11/09 01:02:23;;;;;;;44.10;30.60;;;;;;;6.57;99.78;99727.70;102335;1311;73456;-74
2021/11/09 01:04:50;;;;;;;43.20;31.60;;;;;;;6.57;99.80;99725.75;102144;1313;60581;-75
2021/11/09 01:07:17;;;;;;;44.80;32.00;;;;;;;6.57;99.87;99722.75;102282;1310;62716;-74
2021/11/09 01:09:43;;;;;;;41.50;29.90;;;;;;;6.57;99.90;99726.29;102349;1310;74358;-76
2021/11/09 01:12:10;;;;;;;38.00;28.50;;;;;;;6.56;99.99;99728.10;102322;1310;70800;-75
2021/11/09 01:14:38;;;;;;;40.20;29.10;;;;;;;6.55;100.00;99729.89;102410;1310;72603;-74
2021/11/09 01:17:05;;;;;;;42.90;27.70;;;;;;;6.54;100.00;99731.01;102277;1310;60972;-75
2021/11/09 01:19:33;;;;;;;40.50;28.90;;;;;;;6.53;100.00;99731.92;101917;1310;60673;-74
2021/11/09 01:22:02;;;;;;;41.40;30.40;;;;;;;6.52;100.00;99735.12;102307;1310;74739;-75
2021/11/09 01:24:29;;;;;;;42.40;28.80;;;;;;;6.52;100.00;99736.36;102321;1317;69481;-75
2021/11/09 01:26:56;;;;;;;42.10;30.70;;;;;;;6.52;100.00;99737.77;102344;1310;73978;-75
2021/11/09 01:29:23;;;;;;;39.90;28.90;;;;;;;6.52;100.00;99739.91;102295;1310;60574;-75
2021/11/09 01:31:53;;;;;;;41.10;30.00;;;;;;;6.52;100.00;99740.07;102312;1311;61203;-75
2021/11/09 01:34:20;;;;;;;42.50;30.10;;;;;;;6.52;100.00;99740.79;102355;1310;73139;-73
2021/11/09 01:36:47;;;;;;;43.00;32.60;;;;;;;6.51;100.00;99744.38;102340;1317;68962;-75
2021/11/09 01:39:14;;;;;;;46.30;32.30;;;;;;;6.50;100.00;99741.73;102005;1311;73451;-76
2021/11/09 01:41:41;;;;;;;52.30;36.70;;;;;;;6.50;100.00;99749.88;102337;1310;60566;-76
2021/11/09 01:44:08;;;;;;;53.00;37.00;;;;;;;6.49;100.00;99750.77;102355;1310;62341;-75
2021/11/09 01:46:35;;;;;;;57.30;38.60;;;;;;;6.49;100.00;99754.30;102345;1311;75398;-75
2021/11/09 01:49:04;;;;;;;58.70;41.80;;;;;;;6.49;100.00;99756.11;102354;1310;69396;-75
2021/11/09 01:51:32;;;;;;;65.40;44.40;;;;;;;6.47;100.00;99754.02;102359;1311;73067;-75
2021/11/09 01:54:00;;;;;;;66.20;44.10;;;;;;;6.48;100.00;99752.92;102312;1310;60463;-76
2021/11/09 01:56:29;;;;;;;58.70;42.20;;;;;;;6.49;100.00;99753.61;102364;1310;60502;-76
2021/11/09 01:58:57;;;;;;;58.50;40.30;;;;;;;6.48;100.00;99752.06;102367;1310;74112;-75
2021/11/09 02:01:25;;;;;;;60.60;42.70;;;;;;;6.48;100.00;99754.38;101957;1317;70664;-74
2021/11/09 02:03:55;;;;;;;92.80;70.10;;;;;;;6.47;100.00;99756.86;102333;1310;73524;-75
2021/11/09 02:06:23;;;;;;;72.90;54.60;;;;;;;6.48;100.00;99757.88;102334;1311;60520;-75
2021/11/09 02:08:51;;;;;;;62.80;43.00;;;;;;;6.47;100.00;99757.03;102068;1316;61754;-75
2021/11/09 02:11:17;;;;;;;49.50;35.30;;;;;;;6.46;100.00;99757.44;102333;1310;72761;-74
2021/11/09 02:13:44;;;;;;;51.40;36.50;;;;;;;6.45;100.00;99760.30;102311;1311;69447;-74
2021/11/09 02:16:12;;;;;;;51.50;35.60;;;;;;;6.44;100.00;99760.31;102360;1310;72919;-75
2021/11/09 02:18:39;;;;;;;47.20;33.30;;;;;;;6.45;100.00;99762.59;102318;1310;60529;-75
2021/11/09 02:21:09;;;;;;;47.50;35.70;;;;;;;6.46;100.00;99762.40;102346;1311;62371;-76
2021/11/09 02:23:38;;;;;;;45.30;31.50;;;;;;;6.45;100.00;99760.46;101923;1316;74630;-75
2021/11/09 02:26:06;;;;;;;47.90;33.20;;;;;;;6.46;100.00;99767.33;102405;1310;69500;-76
2021/11/09 02:28:33;;;;;;;46.80;32.20;;;;;;;6.47;100.00;99768.70;102674;1311;70640;-75
2021/11/09 02:30:59;;;;;;;47.90;33.80;;;;;;;6.48;100.00;99772.91;102128;1316;60521;-74
2021/11/09 02:33:26;;;;;;;48.80;35.60;;;;;;;6.47;100.00;99775.91;102258;1313;61647;-76
2021/11/09 02:35:54;;;;;;;48.90;34.90;;;;;;;6.48;100.00;99781.20;101881;1316;74083;-75
2021/11/09 02:38:21;;;;;;;52.50;37.60;;;;;;;6.48;100.00;99784.04;102426;1310;70277;-75
2021/11/09 02:40:48;;;;;;;53.40;38.60;;;;;;;6.47;100.00;99783.70;101958;1317;73028;-75
2021/11/09 02:43:16;;;;;;;60.60;42.30;;;;;;;6.47;100.00;99785.98;102485;1310;60655;-75
2021/11/09 02:46:13;;;;;;;50.60;39.40;;;;;;;6.48;100.00;99790.89;102522;1317;61693;-75
2021/11/09 02:48:51;;;;;;;56.50;40.00;;;;;;;6.48;100.00;99795.11;102506;1311;75712;-74
2021/11/09 02:51:32;;;;;;;48.90;35.30;;;;;;;6.50;100.00;99795.06;102486;1318;69636;-74
2021/11/09 02:54:06;;;;;;;51.00;36.80;;;;;;;6.50;100.00;99797.52;102594;1310;74769;-74
2021/11/09 02:56:43;;;;;;;45.60;31.80;;;;;;;6.50;100.00;99799.30;102589;1310;61972;-75
2021/11/09 03:04:52;;;;;;;40.80;30.60;;;;;;;6.48;100.00;99808.02;102445;1313;69551;-74
2021/11/09 03:12:21;;;;;;;43.60;30.60;;;;;;;6.45;100.00;99815.38;102807;1316;62669;-75
2021/11/09 03:14:49;;;;;;;40.50;30.40;;;;;;;6.46;100.00;99819.56;102827;1314;75776;-75
2021/11/09 03:17:21;;;;;;;49.90;35.10;;;;;;;6.47;100.00;99820.43;103500;1310;70077;-75
2021/11/09 03:47:13;;;;;;;38.90;29.00;;;;;;;6.42;100.00;99845.11;101568;1319;74649;-74
2021/11/09 03:49:41;;;;;;;38.70;27.20;;;;;;;6.41;100.00;99851.52;101677;1319;60827;-75
2021/11/09 03:52:18;;;;;;;36.00;26.50;;;;;;;6.41;100.00;99852.25;102191;1317;61400;-75
2021/11/09 03:54:46;;;;;;;33.60;24.80;;;;;;;6.40;100.00;99853.48;102322;1314;73257;-75
2021/11/09 04:02:31;;;;;;;41.90;30.30;;;;;;;6.39;100.00;99858.65;101970;1317;60529;-76
2021/11/09 04:05:01;;;;;;;46.40;31.40;;;;;;;6.40;100.00;99862.86;102209;1313;62374;-75
2021/11/09 04:07:38;;;;;;;42.80;30.60;;;;;;;6.39;100.00;99866.25;102291;1313;74746;-76
2021/11/09 04:49:51;;;;;;;38.30;31.20;;;;;;;6.37;100.00;99894.00;102136;1313;70579;-75
2021/11/09 05:11:02;;;;;;;44.00;32.50;;;;;;;6.39;100.00;99923.23;102191;1318;62528;-74
2021/11/09 05:13:29;;;;;;;44.20;34.50;;;;;;;6.40;100.00;99923.76;102161;1317;74152;-75
2021/11/09 05:15:56;;;;;;;42.30;30.60;;;;;;;6.41;100.00;99925.86;102243;1317;69549;-75
2021/11/09 05:18:24;;;;;;;40.60;30.20;;;;;;;6.41;100.00;99927.27;102200;1319;73671;-75
2021/11/09 05:20:52;;;;;;;41.30;31.50;;;;;;;6.41;100.00;99927.60;102296;1317;60649;-74
2021/11/09 05:23:18;;;;;;;46.60;33.50;;;;;;;6.42;100.00;99928.79;102209;1313;61133;-74
2021/11/09 05:25:47;;;;;;;42.80;31.90;;;;;;;6.42;100.00;99932.34;102260;1317;74802;-75
2021/11/09 05:28:15;;;;;;;42.00;29.20;;;;;;;6.42;100.00;99934.81;102410;1317;67947;-75
2021/11/09 05:30:47;;;;;;;45.50;31.50;;;;;;;6.42;100.00;99940.45;102329;1310;73524;-75
2021/11/09 05:33:14;;;;;;;38.50;29.80;;;;;;;6.43;100.00;99941.67;102344;1317;60511;-76
2021/11/09 05:35:41;;;;;;;42.60;31.90;;;;;;;6.41;100.00;99949.14;101992;1318;61190;-74
2021/11/09 05:38:09;;;;;;;46.90;35.40;;;;;;;6.40;100.00;99952.52;102440;1316;74861;-75
2021/11/09 05:40:39;;;;;;;48.20;34.60;;;;;;;6.40;100.00;99957.64;102527;1310;69331;-75
2021/11/09 05:43:07;;;;;;;47.70;35.80;;;;;;;6.41;100.00;99961.86;101917;1316;74557;-75
2021/11/09 05:45:34;;;;;;;51.60;37.90;;;;;;;6.41;100.00;99963.27;102287;1311;60513;-75
2021/11/09 05:48:01;;;;;;;49.50;36.50;;;;;;;6.40;100.00;99971.05;102424;1316;60594;-74
2021/11/09 05:50:29;;;;;;;51.70;38.20;;;;;;;6.40;100.00;99973.88;102328;1316;74685;-75
2021/11/09 05:52:56;;;;;;;50.40;37.80;;;;;;;6.41;100.00;99975.98;102373;1317;70510;-74
2021/11/09 05:55:22;;;;;;;52.00;37.00;;;;;;;6.41;100.00;99983.55;102296;1316;73459;-75
2021/11/09 05:57:49;;;;;;;52.70;37.00;;;;;;;6.41;100.00;99989.90;102344;1317;60580;-76
2021/11/09 06:00:16;;;;;;;50.20;35.50;;;;;;;6.42;100.00;100000.29;102340;1316;60508;-76
2021/11/09 06:02:43;;;;;;;57.40;38.50;;;;;;;6.43;100.00;100008.39;102364;1310;75693;-76
2021/11/09 06:05:10;;;;;;;64.90;40.20;;;;;;;6.42;100.00;100018.10;102311;1318;70098;-74
2021/11/09 06:07:37;;;;;;;69.60;42.00;;;;;;;6.44;100.00;100020.70;102267;1310;73473;-73
2021/11/09 06:10:05;;;;;;;72.70;42.00;;;;;;;6.45;100.00;100021.00;102328;1316;60570;-77
2021/11/09 06:12:32;;;;;;;75.90;40.50;;;;;;;6.46;100.00;100021.15;102359;1310;60583;-76
2021/11/09 06:14:59;;;;;;;66.10;39.70;;;;;;;6.47;100.00;100029.25;102312;1316;74930;-75
2021/11/09 06:17:25;;;;;;;71.60;40.80;;;;;;;6.49;100.00;100036.42;102331;1311;70484;-74
2021/11/09 06:19:52;;;;;;;65.90;39.30;;;;;;;6.50;100.00;100037.45;102321;1316;74557;-74
2021/11/09 06:22:19;;;;;;;62.10;38.30;;;;;;;6.53;100.00;100044.95;102353;1317;60574;-74
2021/11/09 06:24:45;;;;;;;70.90;42.20;;;;;;;6.54;100.00;100049.30;102340;1316;62383;-75
2021/11/09 06:27:12;;;;;;;49.70;34.10;;;;;;;6.56;100.00;100057.20;102352;1317;74155;-78
2021/11/09 06:29:39;;;;;;;45.90;31.20;;;;;;;6.56;100.00;100058.60;102317;1311;68863;-78
2021/11/09 06:32:06;;;;;;;49.30;34.00;;;;;;;6.56;100.00;100063.74;102308;1311;74473;-84
2021/11/09 06:34:33;;;;;;;44.60;31.30;;;;;;;6.55;100.00;100072.58;103058;1310;60621;-82
2021/11/09 06:37:00;;;;;;;41.70;29.80;;;;;;;6.54;100.00;100073.85;102818;1317;62755;-79
2021/11/09 06:39:27;;;;;;;37.50;28.10;;;;;;;6.56;100.00;100084.91;102156;1316;75931;-79
2021/11/09 06:41:54;;;;;;;33.90;26.20;;;;;;;6.57;100.00;100090.36;102418;1311;69747;-79
2021/11/09 06:44:20;;;;;;;36.90;26.50;;;;;;;6.59;100.00;100094.17;102384;1311;73931;-79
2021/11/09 06:46:47;;;;;;;31.70;24.40;;;;;;;6.61;100.00;100104.89;101926;1316;60681;-79
2021/11/09 06:49:14;;;;;;;28.90;22.50;;;;;;;6.63;100.00;100112.06;102505;1310;61469;-78
2021/11/09 06:51:41;;;;;;;35.50;25.00;;;;;;;6.66;100.00;100117.45;102393;1310;75739;-78
2021/11/09 06:54:07;;;;;;;37.60;26.40;;;;;;;6.67;100.00;100120.92;102385;1313;70520;-77
2021/11/09 06:56:35;;;;;;;33.60;26.80;;;;;;;6.67;100.00;100126.39;102341;1317;72920;-77
2021/11/09 06:59:02;;;;;;;35.30;29.20;;;;;;;6.68;100.00;100131.82;102366;1310;60631;-76
2021/11/09 07:01:30;;;;;;;40.10;30.80;;;;;;;6.70;100.00;100137.25;102006;1318;61164;-75
2021/11/09 07:03:57;;;;;;;44.30;31.60;;;;;;;6.72;100.00;100142.84;102422;1314;75405;-78
2021/11/09 07:06:24;;;;;;;48.40;35.80;;;;;;;6.76;100.00;100149.23;102288;1317;69555;-76
2021/11/09 07:08:52;;;;;;;48.50;34.60;;;;;;;6.79;100.00;100149.31;102387;1317;74226;-77
2021/11/09 07:11:19;;;;;;;40.10;32.00;;;;;;;6.82;100.00;100157.71;102296;1317;60511;-76
2021/11/09 07:13:46;;;;;;;44.50;32.50;;;;;;;6.84;100.00;100162.08;102334;1311;60419;-76
2021/11/09 07:16:15;;;;;;;44.50;34.20;;;;;;;6.83;100.00;100164.56;102433;1310;73808;-79
2021/11/09 07:18:42;;;;;;;43.90;34.20;;;;;;;6.83;100.00;100164.71;102439;1311;68916;-76
2021/11/09 07:21:09;;;;;;;43.90;33.80;;;;;;;6.86;100.00;100171.52;102405;1314;73383;-76
2021/11/09 07:23:35;;;;;;;39.20;31.30;;;;;;;6.87;100.00;100172.00;102311;1317;60591;-76
2021/11/09 07:26:02;;;;;;;49.20;35.30;;;;;;;6.89;100.00;100173.73;102317;1311;62389;-75
2021/11/09 07:28:29;;;;;;;44.20;31.60;;;;;;;6.92;100.00;100177.16;102002;1320;75705;-77
2021/11/09 07:31:01;;;;;;;39.30;28.60;;;;;;;6.92;100.00;100178.90;102277;1317;70522;-76
2021/11/09 07:33:29;;;;;;;39.00;27.80;;;;;;;6.93;100.00;100183.84;102305;1318;74709;-77
2021/11/09 07:35:57;;;;;;;37.30;26.40;;;;;;;6.94;100.00;100187.86;102435;1317;60412;-76
2021/11/09 07:38:25;;;;;;;34.60;25.80;;;;;;;6.94;100.00;100191.57;102384;1310;62205;-77
2021/11/09 07:40:52;;;;;;;37.30;26.80;;;;;;;6.94;100.00;100197.77;102336;1317;74647;-78
2021/11/09 07:43:19;;;;;;;36.10;26.70;;;;;;;6.93;100.00;100198.68;102300;1310;68927;-76
2021/11/09 07:45:45;;;;;;;35.50;26.20;;;;;;;6.93;100.00;100204.16;102342;1310;73510;-77
2021/11/09 07:48:13;;;;;;;35.00;25.50;;;;;;;6.93;100.00;100203.09;102437;1316;60466;-76
2021/11/09 07:50:41;;;;;;;37.10;27.20;;;;;;;6.95;100.00;100209.92;102394;1316;60640;-77
2021/11/09 07:53:13;;;;;;;32.30;24.50;;;;;;;6.94;100.00;100208.19;102082;1320;76150;-76
2021/11/09 07:55:47;;;;;;;34.10;24.40;;;;;;;6.94;100.00;100211.88;102405;1317;68659;-77
2021/11/09 07:58:19;;;;;;;33.40;24.10;;;;;;;6.95;100.00;100216.29;102545;1311;73711;-77
2021/11/09 08:00:51;;;;;;;38.60;27.70;;;;;;;6.97;100.00;100218.33;102577;1316;60491;-78
2021/11/09 08:03:23;;;;;;;33.80;25.80;;;;;;;6.99;100.00;100224.80;102456;1317;62152;-78
2021/11/09 08:11:11;;;;;;;35.50;23.70;;;;;;;7.10;100.00;100241.41;102205;1317;74514;-76
2021/11/09 08:13:38;;;;;;;38.00;26.40;;;;;;;7.15;100.00;100242.86;102488;1316;60536;-77
2021/11/09 08:16:05;;;;;;;35.10;24.80;;;;;;;7.20;100.00;100244.44;102700;1316;60942;-79
2021/11/09 08:18:31;;;;;;;34.30;24.10;;;;;;;7.22;100.00;100243.30;102625;1317;75751;-76
2021/11/09 08:20:59;;;;;;;41.90;27.00;;;;;;;7.24;100.00;100250.49;102640;1317;70486;-78
2021/11/09 08:23:26;;;;;;;39.30;25.50;;;;;;;7.25;100.00;100255.05;103018;1311;74754;-76
2021/11/09 08:25:53;;;;;;;41.40;25.50;;;;;;;7.29;100.00;100256.89;102975;1316;60542;-78
2021/11/09 08:28:21;;;;;;;41.20;26.80;;;;;;;7.30;100.00;100260.39;103002;1317;61826;-76
2021/11/09 08:30:50;;;;;;;39.80;26.10;;;;;;;7.32;100.00;100266.85;102188;1317;75803;-77
2021/11/09 08:33:17;;;;;;;35.10;25.70;;;;;;;7.33;100.00;100267.54;102544;1310;68998;-77
2021/11/09 08:35:44;;;;;;;42.30;29.30;;;;;;;7.33;100.00;100269.63;102510;1316;72475;-76
2021/11/09 08:38:12;;;;;;;38.30;27.30;;;;;;;7.34;100.00;100272.79;102642;1317;60610;-76
2021/11/09 08:40:41;;;;;;;39.50;27.30;;;;;;;7.34;100.00;100274.73;102726;1317;60614;-75
2021/11/09 08:43:07;;;;;;;40.70;27.20;;;;;;;7.34;100.00;100278.09;102839;1316;74511;-76
2021/11/09 08:48:13;;;;;;;42.80;28.30;;;;;;;7.33;100.00;100292.80;102654;1318;72711;-76
2021/11/09 08:50:42;;;;;;;38.40;26.00;;;;;;;7.34;100.00;100294.01;103363;1311;60457;-76
2021/11/09 08:53:17;;;;;;;44.40;28.80;;;;;;;7.34;100.00;100298.42;103492;1316;60537;-77
2021/11/09 09:06:32;;;;;;;55.10;33.20;;;;;;;7.44;100.00;100319.15;102014;1317;60667;-76
2021/11/09 09:09:03;;;;;;;53.80;34.70;;;;;;;7.44;100.00;100321.23;101830;1317;74679;-77
2021/11/09 09:11:31;;;;;;;59.10;37.10;;;;;;;7.45;100.00;100322.28;102518;1316;67691;-77
2021/11/09 09:13:59;;;;;;;54.80;36.80;;;;;;;7.47;100.00;100322.92;102151;1317;73531;-77
2021/11/09 09:16:30;;;;;;;56.10;38.70;;;;;;;7.50;100.00;100323.02;102385;1317;60512;-77
2021/11/09 09:18:58;;;;;;;58.80;36.40;;;;;;;7.52;100.00;100332.15;102395;1316;62133;-79
2021/11/09 09:21:32;;;;;;;58.00;37.10;;;;;;;7.55;100.00;100331.69;102455;1316;74163;-76
2021/11/09 09:24:10;;;;;;;56.30;35.60;;;;;;;7.62;100.00;100329.17;102293;1316;70389;-78
2021/11/09 09:29:36;;;;;;;57.00;33.90;;;;;;;7.80;100.00;100337.92;102089;1317;60718;-75
2021/11/09 09:54:22;;;;;;;34.90;24.50;;;;;;;8.92;99.16;100358.55;102575;1317;73450;-79
2021/11/09 09:57:00;;;;;;;50.60;35.60;;;;;;;9.02;98.63;100356.90;102388;1317;61391;-76
2021/11/09 09:59:30;;;;;;;36.60;26.90;;;;;;;9.13;98.38;100358.80;102364;1316;60674;-78
2021/11/09 10:02:05;;;;;;;;;;;;;;;9.19;98.24;100362.98;102409;1311;74591;-76
2021/11/09 10:04:34;;;;;;;43.70;29.40;;;;;;;9.25;98.03;100360.96;102091;1318;70543;-75
2021/11/09 10:07:02;;;;;;;29.20;22.70;;;;;;;9.29;97.67;100358.33;102372;1311;74628;-75
2021/11/09 10:09:35;;;;;;;27.30;22.40;;;;;;;9.36;97.09;100364.11;102396;1311;61274;-77
2021/11/09 10:12:35;;;;;;;27.30;22.40;;;;;;;9.36;96.97;100362.50;102409;1310;62370;-76
2021/11/09 10:15:07;;;;;;;30.80;24.20;;;;;;;9.46;96.94;100365.98;101893;1324;75365;-77
2021/11/09 10:17:36;;;;;;;31.80;26.30;;;;;;;9.55;96.95;100363.33;101701;1323;71011;-77
2021/11/09 10:20:18;;;;;;;30.70;26.10;;;;;;;9.58;96.62;100362.31;101691;1320;73692;-74
2021/11/09 10:22:49;;;;;;;32.20;25.30;;;;;;;9.61;96.52;100366.11;101322;1325;60533;-74
2021/11/09 10:25:20;;;;;;;30.00;24.10;;;;;;;9.63;96.68;100366.54;101496;1326;60524;-77
2021/11/09 10:27:50;;;;;;;25.70;22.30;;;;;;;9.66;96.67;100367.48;101839;1325;75376;-79
2021/11/09 10:30:40;;;;;;;26.90;21.70;;;;;;;9.68;96.22;100366.16;101623;1323;70099;-77
2021/11/09 10:33:11;;;;;;;37.30;33.40;;;;;;;9.67;96.08;100367.41;101220;1325;74363;-80
2021/11/09 10:35:38;;;;;;;28.40;25.30;;;;;;;9.69;95.93;100368.25;101274;1330;60444;-80
2021/11/09 10:38:05;;;;;;;25.00;21.00;;;;;;;9.74;96.04;100371.78;101291;1331;61141;-79
2021/11/09 10:40:38;;;;;;;24.60;20.40;;;;;;;9.80;95.97;100375.27;101331;1326;75933;-79
2021/11/09 10:43:08;;;;;;;20.80;18.60;;;;;;;9.84;95.41;100377.23;101104;1329;70742;-79
2021/11/09 10:45:38;;;;;;;19.50;16.10;;;;;;;9.84;95.16;100385.91;100993;1330;74466;-72
2021/11/09 10:48:24;;;;;;;21.40;18.30;;;;;;;9.84;94.78;100392.48;101071;1325;60515;-73
2021/11/09 10:50:57;;;;;;;20.20;17.80;;;;;;;9.84;95.07;100399.02;101064;1329;61130;-73
2021/11/09 11:06:31;;;;;;;15.60;13.90;;;;;;;9.66;94.22;100416.11;101561;1326;74936;-76
2021/11/09 11:09:07;;;;;;;14.80;13.20;;;;;;;9.65;94.08;100422.35;101767;1322;69981;-73
2021/11/09 11:11:38;;;;;;;15.30;13.20;;;;;;;9.68;94.13;100420.98;102018;1313;74654;-74
2021/11/09 11:14:05;;;;;;;15.20;13.20;;;;;;;9.72;94.00;100422.45;102330;1314;61586;-73
2021/11/09 11:16:54;;;;;;;15.50;13.80;;;;;;;9.74;94.23;100422.37;102304;1311;60552;-75
2021/11/09 11:19:22;;;;;;;16.90;15.00;;;;;;;9.84;94.35;100424.63;102330;1310;75674;-73
2021/11/09 11:21:50;;;;;;;20.50;16.30;;;;;;;9.90;94.26;100420.27;102391;1317;69477;-76
2021/11/09 11:24:18;;;;;;;21.00;16.10;;;;;;;9.95;94.29;100418.64;102380;1311;72976;-76
2021/11/09 11:26:46;;;;;;;22.00;15.90;;;;;;;10.00;94.02;100419.34;102355;1311;60629;-72
2021/11/09 11:29:17;;;;;;;19.50;15.90;;;;;;;10.02;93.95;100421.02;102509;1310;61181;-73
2021/11/09 11:31:46;;;;;;;17.40;13.90;;;;;;;10.05;93.73;100420.89;102339;1317;74113;-75
2021/11/09 11:34:13;;;;;;;16.30;13.80;;;;;;;10.06;93.50;100425.83;102474;1310;70158;-73
2021/11/09 11:36:40;;;;;;;17.10;14.00;;;;;;;10.02;93.29;100424.39;102363;1315;73488;-72
2021/11/09 11:39:09;;;;;;;19.10;15.40;;;;;;;9.99;93.12;100431.64;102282;1310;60597;-75
2021/11/09 11:41:39;;;;;;;20.80;16.90;;;;;;;9.97;93.00;100429.95;102472;1317;62066;-74
2021/11/09 11:44:08;;;;;;;22.90;17.20;;;;;;;9.93;93.08;100429.75;102349;1318;75700;-74
2021/11/09 11:46:35;;;;;;;21.10;18.30;;;;;;;9.94;93.28;100424.55;102400;1317;70296;-74
2021/11/09 11:49:05;;;;;;;22.70;18.30;;;;;;;9.97;93.00;100428.36;102324;1317;74059;-73
2021/11/09 11:51:40;;;;;;;18.70;16.80;;;;;;;9.97;92.84;100434.58;102294;1317;61575;-75
2021/11/09 11:54:07;;;;;;;21.40;17.60;;;;;;;9.96;92.93;100434.58;101893;1317;61346;-76
2021/11/09 11:56:44;;;;;;;19.60;17.60;;;;;;;10.00;92.98;100439.02;101937;1313;76110;-74
2021/11/09 11:59:34;;;;;;;21.60;15.80;;;;;;;10.04;92.89;100438.52;102317;1311;69678;-73
2021/11/09 12:02:07;;;;;;;17.60;14.50;;;;;;;10.03;92.62;100439.29;102281;1317;73521;-73
2021/11/09 12:04:43;;;;;;;21.50;16.40;;;;;;;9.99;92.51;100438.16;102381;1311;60489;-74
2021/11/09 12:07:11;;;;;;;19.60;15.80;;;;;;;9.97;92.67;100439.71;102312;1311;62375;-73
2021/11/09 12:09:40;;;;;;;13.20;11.80;;;;;;;9.98;92.69;100439.11;102424;1316;74705;-73
2021/11/09 12:12:19;;;;;;;14.90;11.80;;;;;;;9.95;92.33;100440.68;102345;1310;69715;-74
2021/11/09 12:14:52;;;;;;;15.70;12.50;;;;;;;9.91;92.35;100440.50;102317;1316;74336;-74
2021/11/09 12:17:32;;;;;;;13.10;10.50;;;;;;;9.91;92.36;100440.30;102283;1310;61897;-73
2021/11/09 12:20:24;;;;;;;13.80;12.00;;;;;;;9.90;92.03;100441.96;102318;1317;62453;-73
2021/11/09 12:22:53;;;;;;;15.40;13.30;;;;;;;9.85;92.06;100440.73;102335;1316;74954;-72
2021/11/09 12:25:32;;;;;;;13.50;11.40;;;;;;;9.84;91.91;100441.84;102406;1310;68981;-72
2021/11/09 12:28:03;;;;;;;14.50;12.60;;;;;;;9.84;91.86;100440.41;102315;1310;72701;-73
2021/11/09 12:30:36;;;;;;;13.20;11.30;;;;;;;9.84;91.85;100435.79;102267;1317;60571;-73
2021/11/09 12:33:14;;;;;;;16.70;13.40;;;;;;;9.87;92.08;100439.02;102285;1310;61250;-74
2021/11/09 12:36:06;;;;;;;15.00;13.30;;;;;;;9.91;92.09;100441.00;102356;1318;73571;-73
2021/11/09 12:38:37;;;;;;;17.20;13.20;;;;;;;9.96;91.81;100438.67;102289;1311;69656;-73
2021/11/09 12:41:10;;;;;;;17.10;13.30;;;;;;;9.93;91.52;100442.52;102264;1310;170611;-73
2021/11/09 12:43:51;;;;;;;15.40;13.30;;;;;;;9.90;91.28;100444.93;102668;1311;60607;-81
2021/11/09 12:46:38;;;;;;;15.80;14.10;;;;;;;9.93;91.19;100446.10;102542;1311;61869;-79
2021/11/09 12:49:09;;;;;;;15.70;13.30;;;;;;;9.91;90.96;100446.35;102878;1310;74218;-82
2021/11/09 12:51:53;;;;;;;16.30;14.30;;;;;;;9.88;90.92;100440.40;102647;1310;69989;-76
2021/11/09 12:54:27;;;;;;;16.10;13.60;;;;;;;9.84;90.93;100438.46;102419;1310;74510;-78
2021/11/09 12:57:06;;;;;;;12.00;10.60;;;;;;;9.85;90.88;100438.56;102318;1313;60517;-82
2021/11/09 12:59:48;;;;;;;13.30;10.80;;;;;;;9.85;90.74;100440.34;102818;1310;60560;-77
2021/11/09 13:02:27;;;;;;;11.10;9.80;;;;;;;9.84;90.80;100441.14;102498;1317;75614;-75
2021/11/09 13:05:04;;;;;;;12.10;10.90;;;;;;;9.80;90.57;100440.21;102556;1310;67711;-79
2021/11/09 13:07:37;;;;;;;13.10;10.40;;;;;;;9.79;90.33;100439.35;102798;1316;72958;-78
2021/11/09 13:10:17;;;;;;;12.40;11.00;;;;;;;9.79;90.25;100439.20;102518;1310;60587;-77
2021/11/09 13:12:47;;;;;;;14.90;12.10;;;;;;;9.76;89.93;100439.69;102413;1310;61182;-75
2021/11/09 13:15:16;;;;;;;15.50;11.90;;;;;;;9.70;90.29;100438.30;102471;1317;74740;-73
2021/11/09 13:17:57;;;;;;;16.80;13.00;;;;;;;9.68;90.35;100436.95;102410;1310;67769;-74
2021/11/09 13:23:16;;;;;;;16.80;12.20;;;;;;;9.71;90.52;100436.31;102422;1310;61161;-74
2021/11/09 13:25:50;;;;;;;12.60;11.10;;;;;;;9.68;90.52;100438.56;102540;1310;61145;-73
2021/11/09 13:28:21;;;;;;;13.90;10.60;;;;;;;9.67;90.69;100443.23;102381;1313;74088;-73
2021/11/09 13:30:58;;;;;;;12.70;10.80;;;;;;;9.65;90.59;100446.15;102734;1317;70583;-75
2021/11/09 13:33:27;;;;;;;9.00;8.10;;;;;;;9.62;90.61;100448.72;102036;1319;72953;-76
2021/11/09 13:35:56;;;;;;;11.00;9.10;;;;;;;9.58;90.47;100450.48;102392;1317;60463;-73
2021/11/09 13:38:38;;;;;;;12.10;9.90;;;;;;;9.56;90.52;100450.21;102360;1311;62266;-73
2021/11/09 13:41:20;;;;;;;18.10;14.30;;;;;;;9.53;90.64;100449.98;102284;1310;75372;-74
2021/11/09 13:43:51;;;;;;;12.30;11.00;;;;;;;9.50;90.40;100450.63;101989;1313;67699;-75
2021/11/09 13:46:24;;;;;;;12.10;10.50;;;;;;;9.43;90.35;100451.24;102184;1313;73666;-74
2021/11/09 13:48:54;;;;;;;11.60;9.20;;;;;;;9.38;90.55;100452.55;102412;1317;61636;-74
2021/11/09 13:51:28;;;;;;;12.60;10.10;;;;;;;9.34;90.68;100454.27;102323;1310;61196;-74
2021/11/09 13:54:09;;;;;;;16.20;11.90;;;;;;;9.37;90.80;100456.47;102301;1316;73885;-74
2021/11/09 13:56:35;;;;;;;17.00;14.30;;;;;;;9.38;90.77;100460.66;102274;1310;70542;-75
2021/11/09 13:59:04;;;;;;;17.70;14.30;;;;;;;9.39;90.83;100459.40;102313;1310;74464;-74
2021/11/09 14:01:36;;;;;;;18.40;15.40;;;;;;;9.38;90.62;100462.27;102338;1311;60619;-74